sensor_id;sensor_type;location;lat;lon;timestamp;P1;durP1;ratioP1;P2;durP2;ratioP2
25567;SDS011;13455;51.480;7.594;2023-07-16T00:02:09;3.87;;;1.50;;
25567;SDS011;13455;51.480;7.594;2023-07-16T00:04:34;4.00;;;1.63;;
25567;SDS011;13455;51.480;7.594;2023-07-16T00:07:00;4.37;;;1.50;;
25567;SDS011;13455;51.480;7.594;2023-07-16T00:09:29;4.90;;;1.63;;
25567;SDS011;13455;51.480;7.594;2023-07-16T00:11:55;4.45;;;1.80;;
25567;SDS011;13455;51.480;7.594;2023-07-16T00:14:21;4.28;;;1.58;;
25567;SDS011;13455;51.480;7.594;2023-07-16T00:16:47;4.47;;;1.70;;
25567;SDS011;13455;51.480;7.594;2023-07-16T00:19:14;3.92;;;1.58;;
25567;SDS011;13455;51.480;7.594;2023-07-16T00:21:40;5.33;;;1.83;;
25567;SDS011;13455;51.480;7.594;2023-07-16T00:24:05;4.80;;;1.70;;
25567;SDS011;13455;51.480;7.594;2023-07-16T00:26:31;3.95;;;1.55;;
25567;SDS011;13455;51.480;7.594;2023-07-16T00:28:57;6.93;;;1.80;;
25567;SDS011;13455;51.480;7.594;2023-07-16T00:31:22;4.03;;;1.57;;
25567;SDS011;13455;51.480;7.594;2023-07-16T00:33:48;6.03;;;1.73;;
25567;SDS011;13455;51.480;7.594;2023-07-16T00:36:14;4.80;;;1.60;;
25567;SDS011;13455;51.480;7.594;2023-07-16T00:38:39;3.55;;;1.63;;
25567;SDS011;13455;51.480;7.594;2023-07-16T00:41:06;5.28;;;1.65;;
25567;SDS011;13455;51.480;7.594;2023-07-16T00:43:32;6.27;;;1.70;;
25567;SDS011;13455;51.480;7.594;2023-07-16T00:45:57;4.70;;;1.70;;
25567;SDS011;13455;51.480;7.594;2023-07-16T00:48:23;4.40;;;1.50;;
25567;SDS011;13455;51.480;7.594;2023-07-16T00:50:49;4.20;;;1.50;;
25567;SDS011;13455;51.480;7.594;2023-07-16T00:53:16;4.50;;;1.52;;
25567;SDS011;13455;51.480;7.594;2023-07-16T00:55:42;5.25;;;1.60;;
25567;SDS011;13455;51.480;7.594;2023-07-16T00:58:08;5.13;;;1.60;;
25567;SDS011;13455;51.480;7.594;2023-07-16T01:00:34;7.68;;;1.60;;
25567;SDS011;13455;51.480;7.594;2023-07-16T01:03:01;5.55;;;1.50;;
25567;SDS011;13455;51.480;7.594;2023-07-16T01:05:29;6.00;;;1.50;;
25567;SDS011;13455;51.480;7.594;2023-07-16T01:08:02;5.47;;;1.60;;
25567;SDS011;13455;51.480;7.594;2023-07-16T01:10:32;6.55;;;1.60;;
25567;SDS011;13455;51.480;7.594;2023-07-16T01:12:58;4.88;;;1.90;;
25567;SDS011;13455;51.480;7.594;2023-07-16T01:15:25;4.13;;;1.65;;
25567;SDS011;13455;51.480;7.594;2023-07-16T01:17:51;5.53;;;1.50;;
25567;SDS011;13455;51.480;7.594;2023-07-16T01:20:16;5.70;;;1.70;;
25567;SDS011;13455;51.480;7.594;2023-07-16T01:22:52;3.10;;;1.52;;
25567;SDS011;13455;51.480;7.594;2023-07-16T01:30:48;4.20;;;1.60;;
25567;SDS011;13455;51.480;7.594;2023-07-16T01:33:16;6.82;;;1.60;;
25567;SDS011;13455;51.480;7.594;2023-07-16T01:35:42;4.88;;;1.70;;
25567;SDS011;13455;51.480;7.594;2023-07-16T01:38:09;4.25;;;1.48;;
25567;SDS011;13455;51.480;7.594;2023-07-16T01:40:35;3.58;;;1.50;;
25567;SDS011;13455;51.480;7.594;2023-07-16T01:43:01;4.43;;;1.73;;
25567;SDS011;13455;51.480;7.594;2023-07-16T01:45:27;4.55;;;1.40;;
25567;SDS011;13455;51.480;7.594;2023-07-16T01:48:03;5.15;;;1.50;;
25567;SDS011;13455;51.480;7.594;2023-07-16T01:50:31;4.22;;;1.40;;
25567;SDS011;13455;51.480;7.594;2023-07-16T01:52:57;5.13;;;1.50;;
25567;SDS011;13455;51.480;7.594;2023-07-16T01:55:23;4.32;;;1.40;;
25567;SDS011;13455;51.480;7.594;2023-07-16T01:57:49;7.15;;;1.67;;
25567;SDS011;13455;51.480;7.594;2023-07-16T02:00:15;4.05;;;1.50;;
25567;SDS011;13455;51.480;7.594;2023-07-16T02:02:41;5.25;;;1.50;;
25567;SDS011;13455;51.480;7.594;2023-07-16T02:05:07;6.28;;;1.63;;
25567;SDS011;13455;51.480;7.594;2023-07-16T02:07:33;4.30;;;1.40;;
25567;SDS011;13455;51.480;7.594;2023-07-16T02:09:59;4.25;;;1.75;;
25567;SDS011;13455;51.480;7.594;2023-07-16T02:12:25;5.85;;;1.50;;
25567;SDS011;13455;51.480;7.594;2023-07-16T02:14:51;5.40;;;2.00;;
25567;SDS011;13455;51.480;7.594;2023-07-16T02:17:17;6.15;;;1.70;;
25567;SDS011;13455;51.480;7.594;2023-07-16T02:19:43;5.05;;;1.42;;
25567;SDS011;13455;51.480;7.594;2023-07-16T02:22:09;4.18;;;1.70;;
25567;SDS011;13455;51.480;7.594;2023-07-16T02:24:35;5.55;;;2.30;;
25567;SDS011;13455;51.480;7.594;2023-07-16T02:27:01;5.03;;;1.85;;
25567;SDS011;13455;51.480;7.594;2023-07-16T02:29:27;4.43;;;1.67;;
25567;SDS011;13455;51.480;7.594;2023-07-16T02:31:53;5.90;;;1.70;;
25567;SDS011;13455;51.480;7.594;2023-07-16T02:34:19;5.30;;;1.70;;
25567;SDS011;13455;51.480;7.594;2023-07-16T02:36:46;5.25;;;1.80;;
25567;SDS011;13455;51.480;7.594;2023-07-16T02:39:12;5.05;;;1.88;;
25567;SDS011;13455;51.480;7.594;2023-07-16T02:41:38;5.53;;;1.92;;
25567;SDS011;13455;51.480;7.594;2023-07-16T02:44:04;7.30;;;2.20;;
25567;SDS011;13455;51.480;7.594;2023-07-16T02:46:30;6.13;;;2.13;;
25567;SDS011;13455;51.480;7.594;2023-07-16T02:48:56;4.10;;;2.10;;
25567;SDS011;13455;51.480;7.594;2023-07-16T02:51:22;4.70;;;2.00;;
25567;SDS011;13455;51.480;7.594;2023-07-16T02:53:48;5.88;;;2.13;;
25567;SDS011;13455;51.480;7.594;2023-07-16T02:56:15;7.00;;;2.10;;
25567;SDS011;13455;51.480;7.594;2023-07-16T02:58:41;7.68;;;1.95;;
25567;SDS011;13455;51.480;7.594;2023-07-16T03:01:07;6.20;;;1.95;;
25567;SDS011;13455;51.480;7.594;2023-07-16T03:03:33;4.50;;;1.80;;
25567;SDS011;13455;51.480;7.594;2023-07-16T03:06:00;6.70;;;2.00;;
25567;SDS011;13455;51.480;7.594;2023-07-16T03:08:26;8.63;;;1.95;;
25567;SDS011;13455;51.480;7.594;2023-07-16T03:10:55;5.53;;;1.95;;
25567;SDS011;13455;51.480;7.594;2023-07-16T03:13:21;6.50;;;1.97;;
25567;SDS011;13455;51.480;7.594;2023-07-16T03:15:47;5.77;;;1.90;;
25567;SDS011;13455;51.480;7.594;2023-07-16T03:18:13;5.17;;;1.90;;
25567;SDS011;13455;51.480;7.594;2023-07-16T03:20:39;6.35;;;2.10;;
25567;SDS011;13455;51.480;7.594;2023-07-16T03:23:05;5.05;;;1.80;;
25567;SDS011;13455;51.480;7.594;2023-07-16T03:25:31;6.43;;;2.00;;
25567;SDS011;13455;51.480;7.594;2023-07-16T03:27:57;3.70;;;1.80;;
25567;SDS011;13455;51.480;7.594;2023-07-16T03:30:23;6.38;;;2.00;;
25567;SDS011;13455;51.480;7.594;2023-07-16T03:32:49;5.57;;;1.80;;
25567;SDS011;13455;51.480;7.594;2023-07-16T03:35:15;6.05;;;1.55;;
25567;SDS011;13455;51.480;7.594;2023-07-16T03:37:41;5.30;;;1.67;;
25567;SDS011;13455;51.480;7.594;2023-07-16T03:40:16;6.27;;;1.70;;
25567;SDS011;13455;51.480;7.594;2023-07-16T03:42:43;4.65;;;1.50;;
25567;SDS011;13455;51.480;7.594;2023-07-16T03:45:12;6.30;;;1.52;;
25567;SDS011;13455;51.480;7.594;2023-07-16T03:47:39;4.63;;;1.70;;
25567;SDS011;13455;51.480;7.594;2023-07-16T03:50:05;7.88;;;1.50;;
25567;SDS011;13455;51.480;7.594;2023-07-16T03:52:31;6.95;;;1.80;;
25567;SDS011;13455;51.480;7.594;2023-07-16T03:54:57;5.60;;;1.50;;
25567;SDS011;13455;51.480;7.594;2023-07-16T03:57:23;8.35;;;1.65;;
25567;SDS011;13455;51.480;7.594;2023-07-16T03:59:49;5.40;;;1.60;;
25567;SDS011;13455;51.480;7.594;2023-07-16T04:02:14;6.57;;;1.70;;
25567;SDS011;13455;51.480;7.594;2023-07-16T04:04:40;6.60;;;1.77;;
25567;SDS011;13455;51.480;7.594;2023-07-16T04:07:05;8.00;;;1.80;;
25567;SDS011;13455;51.480;7.594;2023-07-16T04:09:31;5.72;;;1.85;;
25567;SDS011;13455;51.480;7.594;2023-07-16T04:11:57;5.20;;;1.80;;
25567;SDS011;13455;51.480;7.594;2023-07-16T04:14:22;5.77;;;1.80;;
25567;SDS011;13455;51.480;7.594;2023-07-16T04:16:48;6.03;;;1.80;;
25567;SDS011;13455;51.480;7.594;2023-07-16T04:19:13;8.07;;;2.17;;
25567;SDS011;13455;51.480;7.594;2023-07-16T04:21:40;6.50;;;1.95;;
25567;SDS011;13455;51.480;7.594;2023-07-16T04:24:06;7.05;;;1.80;;
25567;SDS011;13455;51.480;7.594;2023-07-16T04:26:32;6.72;;;2.03;;
25567;SDS011;13455;51.480;7.594;2023-07-16T04:28:58;6.65;;;2.03;;
25567;SDS011;13455;51.480;7.594;2023-07-16T04:31:24;5.25;;;1.92;;
25567;SDS011;13455;51.480;7.594;2023-07-16T04:33:50;7.15;;;2.00;;
25567;SDS011;13455;51.480;7.594;2023-07-16T04:36:16;6.20;;;1.95;;
25567;SDS011;13455;51.480;7.594;2023-07-16T04:38:41;7.97;;;1.92;;
25567;SDS011;13455;51.480;7.594;2023-07-16T04:41:07;7.45;;;1.80;;
25567;SDS011;13455;51.480;7.594;2023-07-16T04:43:33;6.13;;;2.00;;
25567;SDS011;13455;51.480;7.594;2023-07-16T04:45:59;7.28;;;1.85;;
25567;SDS011;13455;51.480;7.594;2023-07-16T04:48:26;6.43;;;2.00;;
25567;SDS011;13455;51.480;7.594;2023-07-16T04:50:51;5.28;;;2.10;;
25567;SDS011;13455;51.480;7.594;2023-07-16T04:53:17;5.38;;;1.88;;
25567;SDS011;13455;51.480;7.594;2023-07-16T04:55:43;8.40;;;2.00;;
25567;SDS011;13455;51.480;7.594;2023-07-16T04:58:11;5.28;;;2.00;;
25567;SDS011;13455;51.480;7.594;2023-07-16T05:00:37;7.65;;;1.70;;
25567;SDS011;13455;51.480;7.594;2023-07-16T05:03:02;6.63;;;2.00;;
25567;SDS011;13455;51.480;7.594;2023-07-16T05:05:28;6.65;;;2.00;;
25567;SDS011;13455;51.480;7.594;2023-07-16T05:07:55;5.32;;;1.90;;
25567;SDS011;13455;51.480;7.594;2023-07-16T05:10:21;6.23;;;2.03;;
25567;SDS011;13455;51.480;7.594;2023-07-16T05:12:47;8.33;;;2.40;;
25567;SDS011;13455;51.480;7.594;2023-07-16T05:15:13;10.60;;;2.27;;
25567;SDS011;13455;51.480;7.594;2023-07-16T05:17:39;6.43;;;2.37;;
25567;SDS011;13455;51.480;7.594;2023-07-16T05:20:05;6.97;;;2.00;;
25567;SDS011;13455;51.480;7.594;2023-07-16T05:22:32;10.35;;;2.50;;
25567;SDS011;13455;51.480;7.594;2023-07-16T05:24:58;6.35;;;2.22;;
25567;SDS011;13455;51.480;7.594;2023-07-16T05:27:24;6.07;;;2.28;;
25567;SDS011;13455;51.480;7.594;2023-07-16T05:29:50;8.85;;;2.55;;
25567;SDS011;13455;51.480;7.594;2023-07-16T05:32:16;8.02;;;2.42;;
25567;SDS011;13455;51.480;7.594;2023-07-16T05:34:42;7.05;;;2.28;;
25567;SDS011;13455;51.480;7.594;2023-07-16T05:37:08;8.23;;;2.60;;
25567;SDS011;13455;51.480;7.594;2023-07-16T05:39:34;10.98;;;2.75;;
25567;SDS011;13455;51.480;7.594;2023-07-16T05:42:00;6.90;;;2.22;;
25567;SDS011;13455;51.480;7.594;2023-07-16T05:44:27;7.25;;;2.40;;
25567;SDS011;13455;51.480;7.594;2023-07-16T05:46:53;9.02;;;2.42;;
25567;SDS011;13455;51.480;7.594;2023-07-16T05:49:19;8.45;;;2.17;;
25567;SDS011;13455;51.480;7.594;2023-07-16T05:51:45;7.18;;;2.40;;
25567;SDS011;13455;51.480;7.594;2023-07-16T05:54:11;8.80;;;2.40;;
25567;SDS011;13455;51.480;7.594;2023-07-16T05:56:37;9.25;;;2.63;;
25567;SDS011;13455;51.480;7.594;2023-07-16T05:59:03;7.00;;;2.60;;
25567;SDS011;13455;51.480;7.594;2023-07-16T06:01:29;7.93;;;2.60;;
25567;SDS011;13455;51.480;7.594;2023-07-16T06:03:54;11.68;;;2.53;;
25567;SDS011;13455;51.480;7.594;2023-07-16T06:06:20;7.60;;;2.67;;
25567;SDS011;13455;51.480;7.594;2023-07-16T06:08:46;9.90;;;2.83;;
25567;SDS011;13455;51.480;7.594;2023-07-16T06:11:12;9.13;;;2.70;;
25567;SDS011;13455;51.480;7.594;2023-07-16T06:13:37;7.97;;;2.63;;
25567;SDS011;13455;51.480;7.594;2023-07-16T06:16:03;9.23;;;2.80;;
25567;SDS011;13455;51.480;7.594;2023-07-16T06:18:29;6.77;;;2.50;;
25567;SDS011;13455;51.480;7.594;2023-07-16T06:20:54;8.50;;;2.50;;
25567;SDS011;13455;51.480;7.594;2023-07-16T06:23:20;9.30;;;3.30;;
25567;SDS011;13455;51.480;7.594;2023-07-16T06:25:46;9.43;;;3.00;;
25567;SDS011;13455;51.480;7.594;2023-07-16T06:28:13;10.03;;;3.20;;
25567;SDS011;13455;51.480;7.594;2023-07-16T06:30:39;9.18;;;3.20;;
25567;SDS011;13455;51.480;7.594;2023-07-16T06:33:05;9.05;;;3.20;;
25567;SDS011;13455;51.480;7.594;2023-07-16T06:35:31;7.63;;;3.05;;
25567;SDS011;13455;51.480;7.594;2023-07-16T06:37:57;9.55;;;3.20;;
25567;SDS011;13455;51.480;7.594;2023-07-16T06:40:23;6.87;;;3.00;;
25567;SDS011;13455;51.480;7.594;2023-07-16T06:42:49;9.75;;;3.10;;
25567;SDS011;13455;51.480;7.594;2023-07-16T06:45:15;8.83;;;3.30;;
25567;SDS011;13455;51.480;7.594;2023-07-16T06:47:42;10.00;;;3.10;;
25567;SDS011;13455;51.480;7.594;2023-07-16T06:50:08;9.23;;;3.57;;
25567;SDS011;13455;51.480;7.594;2023-07-16T06:52:34;6.77;;;2.97;;
25567;SDS011;13455;51.480;7.594;2023-07-16T06:54:59;8.17;;;3.27;;
25567;SDS011;13455;51.480;7.594;2023-07-16T06:57:25;10.15;;;3.50;;
25567;SDS011;13455;51.480;7.594;2023-07-16T06:59:50;8.10;;;3.60;;
25567;SDS011;13455;51.480;7.594;2023-07-16T07:02:16;10.38;;;3.72;;
25567;SDS011;13455;51.480;7.594;2023-07-16T07:04:43;7.43;;;3.35;;
25567;SDS011;13455;51.480;7.594;2023-07-16T07:07:08;7.75;;;3.50;;
25567;SDS011;13455;51.480;7.594;2023-07-16T07:09:34;9.82;;;3.63;;
25567;SDS011;13455;51.480;7.594;2023-07-16T07:12:00;7.87;;;3.70;;
25567;SDS011;13455;51.480;7.594;2023-07-16T07:14:26;9.90;;;3.80;;
25567;SDS011;13455;51.480;7.594;2023-07-16T07:16:51;8.43;;;3.63;;
25567;SDS011;13455;51.480;7.594;2023-07-16T07:19:17;10.20;;;3.75;;
25567;SDS011;13455;51.480;7.594;2023-07-16T07:21:43;7.73;;;3.57;;
25567;SDS011;13455;51.480;7.594;2023-07-16T07:24:08;9.60;;;3.55;;
25567;SDS011;13455;51.480;7.594;2023-07-16T07:26:34;8.87;;;3.50;;
25567;SDS011;13455;51.480;7.594;2023-07-16T07:28:59;10.07;;;3.60;;
25567;SDS011;13455;51.480;7.594;2023-07-16T07:31:25;9.00;;;3.67;;
25567;SDS011;13455;51.480;7.594;2023-07-16T07:33:50;9.87;;;3.80;;
25567;SDS011;13455;51.480;7.594;2023-07-16T07:36:18;9.82;;;3.70;;
25567;SDS011;13455;51.480;7.594;2023-07-16T07:38:44;8.20;;;3.77;;
25567;SDS011;13455;51.480;7.594;2023-07-16T07:41:10;11.13;;;3.88;;
25567;SDS011;13455;51.480;7.594;2023-07-16T07:43:35;8.38;;;3.72;;
25567;SDS011;13455;51.480;7.594;2023-07-16T07:46:01;10.33;;;3.83;;
25567;SDS011;13455;51.480;7.594;2023-07-16T07:48:26;9.45;;;3.80;;
25567;SDS011;13455;51.480;7.594;2023-07-16T07:50:52;8.90;;;3.60;;
25567;SDS011;13455;51.480;7.594;2023-07-16T07:53:18;8.02;;;3.47;;
25567;SDS011;13455;51.480;7.594;2023-07-16T07:55:44;6.33;;;3.30;;
25567;SDS011;13455;51.480;7.594;2023-07-16T07:58:10;12.27;;;3.97;;
25567;SDS011;13455;51.480;7.594;2023-07-16T08:00:36;7.40;;;3.35;;
25567;SDS011;13455;51.480;7.594;2023-07-16T08:03:02;9.33;;;3.90;;
25567;SDS011;13455;51.480;7.594;2023-07-16T08:05:27;10.17;;;3.50;;
25567;SDS011;13455;51.480;7.594;2023-07-16T08:07:53;8.35;;;3.42;;
25567;SDS011;13455;51.480;7.594;2023-07-16T08:10:20;8.48;;;3.50;;
25567;SDS011;13455;51.480;7.594;2023-07-16T08:12:46;8.02;;;3.63;;
25567;SDS011;13455;51.480;7.594;2023-07-16T08:15:12;7.70;;;3.45;;
25567;SDS011;13455;51.480;7.594;2023-07-16T08:17:41;7.25;;;3.50;;
25567;SDS011;13455;51.480;7.594;2023-07-16T08:20:08;7.40;;;3.40;;
25567;SDS011;13455;51.480;7.594;2023-07-16T08:22:34;7.10;;;3.50;;
25567;SDS011;13455;51.480;7.594;2023-07-16T08:24:59;7.30;;;3.40;;
25567;SDS011;13455;51.480;7.594;2023-07-16T08:27:25;7.85;;;3.40;;
25567;SDS011;13455;51.480;7.594;2023-07-16T08:29:50;8.37;;;3.50;;
25567;SDS011;13455;51.480;7.594;2023-07-16T08:32:18;6.68;;;3.50;;
25567;SDS011;13455;51.480;7.594;2023-07-16T08:34:44;6.18;;;3.25;;
25567;SDS011;13455;51.480;7.594;2023-07-16T08:37:10;5.90;;;3.30;;
25567;SDS011;13455;51.480;7.594;2023-07-16T08:39:35;7.65;;;3.40;;
25567;SDS011;13455;51.480;7.594;2023-07-16T08:42:01;8.03;;;3.40;;
25567;SDS011;13455;51.480;7.594;2023-07-16T08:44:27;6.20;;;3.30;;
25567;SDS011;13455;51.480;7.594;2023-07-16T08:46:54;7.00;;;3.08;;
25567;SDS011;13455;51.480;7.594;2023-07-16T08:49:20;7.87;;;3.20;;
25567;SDS011;13455;51.480;7.594;2023-07-16T08:51:48;5.43;;;3.20;;
25567;SDS011;13455;51.480;7.594;2023-07-16T08:54:14;8.27;;;3.30;;
25567;SDS011;13455;51.480;7.594;2023-07-16T08:56:44;5.97;;;3.05;;
25567;SDS011;13455;51.480;7.594;2023-07-16T08:59:12;8.60;;;3.45;;
25567;SDS011;13455;51.480;7.594;2023-07-16T09:01:39;5.85;;;3.08;;
25567;SDS011;13455;51.480;7.594;2023-07-16T09:04:05;6.37;;;3.27;;
25567;SDS011;13455;51.480;7.594;2023-07-16T09:06:31;7.47;;;3.42;;
25567;SDS011;13455;51.480;7.594;2023-07-16T09:08:57;6.40;;;3.15;;
25567;SDS011;13455;51.480;7.594;2023-07-16T09:11:23;7.28;;;3.08;;
25567;SDS011;13455;51.480;7.594;2023-07-16T09:13:48;7.87;;;3.33;;
25567;SDS011;13455;51.480;7.594;2023-07-16T09:16:15;6.13;;;3.22;;
25567;SDS011;13455;51.480;7.594;2023-07-16T09:18:43;8.13;;;3.60;;
25567;SDS011;13455;51.480;7.594;2023-07-16T09:21:10;7.07;;;3.42;;
25567;SDS011;13455;51.480;7.594;2023-07-16T09:23:36;10.18;;;3.10;;
25567;SDS011;13455;51.480;7.594;2023-07-16T09:26:02;7.10;;;3.10;;
25567;SDS011;13455;51.480;7.594;2023-07-16T09:28:30;6.90;;;2.97;;
25567;SDS011;13455;51.480;7.594;2023-07-16T09:31:02;5.82;;;3.30;;
25567;SDS011;13455;51.480;7.594;2023-07-16T09:33:30;8.77;;;3.47;;
25567;SDS011;13455;51.480;7.594;2023-07-16T09:35:56;7.82;;;3.28;;
25567;SDS011;13455;51.480;7.594;2023-07-16T09:38:22;5.47;;;2.90;;
25567;SDS011;13455;51.480;7.594;2023-07-16T09:40:52;9.02;;;3.10;;
25567;SDS011;13455;51.480;7.594;2023-07-16T09:43:18;6.95;;;2.90;;
25567;SDS011;13455;51.480;7.594;2023-07-16T09:45:46;6.82;;;3.28;;
25567;SDS011;13455;51.480;7.594;2023-07-16T09:48:12;6.70;;;3.10;;
25567;SDS011;13455;51.480;7.594;2023-07-16T09:50:39;6.60;;;3.13;;
25567;SDS011;13455;51.480;7.594;2023-07-16T09:53:06;5.53;;;2.85;;
25567;SDS011;13455;51.480;7.594;2023-07-16T09:55:33;7.97;;;3.20;;
25567;SDS011;13455;51.480;7.594;2023-07-16T09:58:00;5.95;;;3.00;;
25567;SDS011;13455;51.480;7.594;2023-07-16T10:00:28;8.35;;;3.13;;
25567;SDS011;13455;51.480;7.594;2023-07-16T10:02:55;7.30;;;2.90;;
25567;SDS011;13455;51.480;7.594;2023-07-16T10:05:24;5.30;;;2.90;;
25567;SDS011;13455;51.480;7.594;2023-07-16T10:07:52;5.32;;;2.95;;
25567;SDS011;13455;51.480;7.594;2023-07-16T10:13:08;4.90;;;2.70;;
25567;SDS011;13455;51.480;7.594;2023-07-16T10:15:37;6.80;;;3.05;;
25567;SDS011;13455;51.480;7.594;2023-07-16T10:18:03;7.05;;;3.10;;
25567;SDS011;13455;51.480;7.594;2023-07-16T10:20:35;7.80;;;3.10;;
25567;SDS011;13455;51.480;7.594;2023-07-16T10:23:11;6.20;;;2.88;;
25567;SDS011;13455;51.480;7.594;2023-07-16T10:25:41;7.93;;;3.00;;
25567;SDS011;13455;51.480;7.594;2023-07-16T10:28:26;6.50;;;2.92;;
25567;SDS011;13455;51.480;7.594;2023-07-16T10:30:51;5.40;;;2.78;;
25567;SDS011;13455;51.480;7.594;2023-07-16T10:33:17;5.73;;;3.10;;
25567;SDS011;13455;51.480;7.594;2023-07-16T10:35:46;5.65;;;3.00;;
25567;SDS011;13455;51.480;7.594;2023-07-16T10:38:12;5.72;;;2.80;;
25567;SDS011;13455;51.480;7.594;2023-07-16T10:40:41;6.33;;;2.87;;
25567;SDS011;13455;51.480;7.594;2023-07-16T10:43:08;5.70;;;3.00;;
25567;SDS011;13455;51.480;7.594;2023-07-16T10:45:33;5.10;;;2.90;;
25567;SDS011;13455;51.480;7.594;2023-07-16T10:47:59;6.67;;;2.90;;
25567;SDS011;13455;51.480;7.594;2023-07-16T10:50:25;6.45;;;2.90;;
25567;SDS011;13455;51.480;7.594;2023-07-16T10:52:56;6.70;;;2.70;;
25567;SDS011;13455;51.480;7.594;2023-07-16T10:55:22;5.18;;;2.70;;
25567;SDS011;13455;51.480;7.594;2023-07-16T10:57:49;6.50;;;2.60;;
25567;SDS011;13455;51.480;7.594;2023-07-16T11:00:16;6.15;;;2.55;;
25567;SDS011;13455;51.480;7.594;2023-07-16T11:02:43;6.10;;;2.70;;
25567;SDS011;13455;51.480;7.594;2023-07-16T11:05:12;5.87;;;2.97;;
25567;SDS011;13455;51.480;7.594;2023-07-16T11:07:45;4.95;;;2.70;;
25567;SDS011;13455;51.480;7.594;2023-07-16T11:10:12;6.17;;;2.60;;
25567;SDS011;13455;51.480;7.594;2023-07-16T11:12:41;7.73;;;2.80;;
25567;SDS011;13455;51.480;7.594;2023-07-16T11:15:07;5.18;;;2.47;;
25567;SDS011;13455;51.480;7.594;2023-07-16T11:17:33;4.72;;;2.53;;
25567;SDS011;13455;51.480;7.594;2023-07-16T11:19:59;4.97;;;2.67;;
25567;SDS011;13455;51.480;7.594;2023-07-16T11:22:26;6.47;;;2.63;;
25567;SDS011;13455;51.480;7.594;2023-07-16T11:24:52;4.97;;;2.70;;
25567;SDS011;13455;51.480;7.594;2023-07-16T11:27:20;5.20;;;2.45;;
25567;SDS011;13455;51.480;7.594;2023-07-16T11:29:48;4.93;;;2.33;;
25567;SDS011;13455;51.480;7.594;2023-07-16T11:34:56;4.65;;;2.58;;
25567;SDS011;13455;51.480;7.594;2023-07-16T11:37:24;4.90;;;2.30;;
25567;SDS011;13455;51.480;7.594;2023-07-16T11:39:50;4.55;;;2.28;;
25567;SDS011;13455;51.480;7.594;2023-07-16T11:42:22;5.43;;;2.15;;
25567;SDS011;13455;51.480;7.594;2023-07-16T11:44:58;6.03;;;2.08;;
25567;SDS011;13455;51.480;7.594;2023-07-16T11:47:25;3.70;;;2.10;;
25567;SDS011;13455;51.480;7.594;2023-07-16T11:49:51;4.68;;;2.00;;
25567;SDS011;13455;51.480;7.594;2023-07-16T11:52:26;6.10;;;2.30;;
25567;SDS011;13455;51.480;7.594;2023-07-16T11:54:53;5.47;;;2.40;;
25567;SDS011;13455;51.480;7.594;2023-07-16T11:57:24;4.00;;;2.00;;
25567;SDS011;13455;51.480;7.594;2023-07-16T11:59:50;5.03;;;2.00;;
25567;SDS011;13455;51.480;7.594;2023-07-16T12:02:16;4.25;;;2.30;;
25567;SDS011;13455;51.480;7.594;2023-07-16T12:04:42;4.18;;;2.10;;
25567;SDS011;13455;51.480;7.594;2023-07-16T12:07:08;4.35;;;2.00;;
25567;SDS011;13455;51.480;7.594;2023-07-16T12:09:34;4.50;;;2.30;;
25567;SDS011;13455;51.480;7.594;2023-07-16T12:12:00;3.55;;;2.00;;
25567;SDS011;13455;51.480;7.594;2023-07-16T12:14:26;4.47;;;2.00;;
25567;SDS011;13455;51.480;7.594;2023-07-16T12:16:52;3.47;;;2.03;;
25567;SDS011;13455;51.480;7.594;2023-07-16T12:19:17;3.90;;;2.00;;
25567;SDS011;13455;51.480;7.594;2023-07-16T12:21:43;6.82;;;2.17;;
25567;SDS011;13455;51.480;7.594;2023-07-16T12:24:09;5.17;;;2.17;;
25567;SDS011;13455;51.480;7.594;2023-07-16T12:26:35;5.53;;;2.20;;
25567;SDS011;13455;51.480;7.594;2023-07-16T12:29:01;5.20;;;2.17;;
25567;SDS011;13455;51.480;7.594;2023-07-16T12:31:32;4.23;;;2.10;;
25567;SDS011;13455;51.480;7.594;2023-07-16T12:33:58;5.38;;;2.10;;
25567;SDS011;13455;51.480;7.594;2023-07-16T12:36:25;4.47;;;2.35;;
25567;SDS011;13455;51.480;7.594;2023-07-16T12:38:50;4.87;;;2.13;;
25567;SDS011;13455;51.480;7.594;2023-07-16T12:41:16;4.20;;;2.13;;
25567;SDS011;13455;51.480;7.594;2023-07-16T12:43:42;4.68;;;2.00;;
25567;SDS011;13455;51.480;7.594;2023-07-16T12:46:07;6.90;;;2.33;;
25567;SDS011;13455;51.480;7.594;2023-07-16T12:48:34;5.90;;;2.40;;
25567;SDS011;13455;51.480;7.594;2023-07-16T12:50:59;8.18;;;2.40;;
25567;SDS011;13455;51.480;7.594;2023-07-16T12:53:28;4.95;;;2.17;;
25567;SDS011;13455;51.480;7.594;2023-07-16T12:55:56;4.67;;;2.30;;
25567;SDS011;13455;51.480;7.594;2023-07-16T12:58:22;5.40;;;2.30;;
25567;SDS011;13455;51.480;7.594;2023-07-16T13:00:50;4.90;;;2.33;;
25567;SDS011;13455;51.480;7.594;2023-07-16T13:03:16;4.33;;;2.30;;
25567;SDS011;13455;51.480;7.594;2023-07-16T13:05:42;5.32;;;2.53;;
25567;SDS011;13455;51.480;7.594;2023-07-16T13:08:09;5.32;;;2.33;;
25567;SDS011;13455;51.480;7.594;2023-07-16T13:10:35;5.63;;;2.20;;
25567;SDS011;13455;51.480;7.594;2023-07-16T13:13:01;4.95;;;2.30;;
25567;SDS011;13455;51.480;7.594;2023-07-16T13:15:28;5.95;;;2.40;;
25567;SDS011;13455;51.480;7.594;2023-07-16T13:17:54;5.38;;;2.50;;
25567;SDS011;13455;51.480;7.594;2023-07-16T13:20:20;5.03;;;2.50;;
25567;SDS011;13455;51.480;7.594;2023-07-16T13:22:46;5.45;;;2.60;;
25567;SDS011;13455;51.480;7.594;2023-07-16T13:25:12;4.38;;;2.38;;
25567;SDS011;13455;51.480;7.594;2023-07-16T13:27:38;4.97;;;2.30;;
25567;SDS011;13455;51.480;7.594;2023-07-16T13:30:04;7.53;;;2.53;;
25567;SDS011;13455;51.480;7.594;2023-07-16T13:32:30;4.95;;;2.40;;
25567;SDS011;13455;51.480;7.594;2023-07-16T13:34:56;5.85;;;2.60;;
25567;SDS011;13455;51.480;7.594;2023-07-16T13:37:22;5.73;;;2.50;;
25567;SDS011;13455;51.480;7.594;2023-07-16T13:39:47;6.45;;;2.38;;
25567;SDS011;13455;51.480;7.594;2023-07-16T13:42:13;6.13;;;2.47;;
25567;SDS011;13455;51.480;7.594;2023-07-16T13:44:39;6.50;;;2.30;;
25567;SDS011;13455;51.480;7.594;2023-07-16T13:47:04;7.22;;;2.45;;
25567;SDS011;13455;51.480;7.594;2023-07-16T13:49:30;5.15;;;2.50;;
25567;SDS011;13455;51.480;7.594;2023-07-16T13:51:55;5.83;;;2.20;;
25567;SDS011;13455;51.480;7.594;2023-07-16T13:54:21;4.75;;;2.40;;
25567;SDS011;13455;51.480;7.594;2023-07-16T13:56:48;8.60;;;2.40;;
25567;SDS011;13455;51.480;7.594;2023-07-16T13:59:14;5.15;;;2.30;;
25567;SDS011;13455;51.480;7.594;2023-07-16T14:01:40;4.70;;;2.47;;
25567;SDS011;13455;51.480;7.594;2023-07-16T14:04:06;6.90;;;2.50;;
25567;SDS011;13455;51.480;7.594;2023-07-16T14:06:32;5.60;;;2.50;;
25567;SDS011;13455;51.480;7.594;2023-07-16T14:08:58;5.80;;;2.50;;
25567;SDS011;13455;51.480;7.594;2023-07-16T14:11:26;6.00;;;2.60;;
25567;SDS011;13455;51.480;7.594;2023-07-16T14:13:52;5.43;;;2.65;;
25567;SDS011;13455;51.480;7.594;2023-07-16T14:16:19;5.15;;;2.45;;
25567;SDS011;13455;51.480;7.594;2023-07-16T14:18:45;6.00;;;2.60;;
25567;SDS011;13455;51.480;7.594;2023-07-16T14:21:15;5.43;;;2.57;;
25567;SDS011;13455;51.480;7.594;2023-07-16T14:23:40;4.32;;;2.35;;
25567;SDS011;13455;51.480;7.594;2023-07-16T14:26:06;5.95;;;2.60;;
25567;SDS011;13455;51.480;7.594;2023-07-16T14:28:32;7.03;;;2.67;;
25567;SDS011;13455;51.480;7.594;2023-07-16T14:30:57;5.28;;;2.75;;
25567;SDS011;13455;51.480;7.594;2023-07-16T14:33:23;4.93;;;2.60;;
25567;SDS011;13455;51.480;7.594;2023-07-16T14:35:48;6.00;;;2.70;;
25567;SDS011;13455;51.480;7.594;2023-07-16T14:38:14;5.80;;;2.40;;
25567;SDS011;13455;51.480;7.594;2023-07-16T14:40:40;4.95;;;2.47;;
25567;SDS011;13455;51.480;7.594;2023-07-16T14:43:07;5.28;;;2.38;;
25567;SDS011;13455;51.480;7.594;2023-07-16T14:45:36;6.22;;;2.50;;
25567;SDS011;13455;51.480;7.594;2023-07-16T14:48:02;4.18;;;2.30;;
25567;SDS011;13455;51.480;7.594;2023-07-16T14:50:29;5.05;;;2.30;;
25567;SDS011;13455;51.480;7.594;2023-07-16T14:52:55;7.93;;;2.55;;
25567;SDS011;13455;51.480;7.594;2023-07-16T14:55:21;5.25;;;2.70;;